sensor_id;sensor_type;location;lat;lon;timestamp;P1;durP1;ratioP1;P2;durP2;ratioP2
69381;SDS011;56560;50.692;12.844;2022-10-16T00:01:33;1.70;;;1.10;;
69381;SDS011;56560;50.692;12.844;2022-10-16T00:03:59;2.17;;;1.10;;
69381;SDS011;56560;50.692;12.844;2022-10-16T00:06:26;4.13;;;1.00;;
69381;SDS011;56560;50.692;12.844;2022-10-16T00:08:52;2.47;;;0.90;;
69381;SDS011;56560;50.692;12.844;2022-10-16T00:13:46;1.20;;;0.85;;
69381;SDS011;56560;50.692;12.844;2022-10-16T00:16:14;2.10;;;0.80;;
69381;SDS011;56560;50.692;12.844;2022-10-16T00:18:40;3.88;;;0.90;;
69381;SDS011;56560;50.692;12.844;2022-10-16T00:21:10;1.60;;;0.80;;
69381;SDS011;56560;50.692;12.844;2022-10-16T00:23:50;1.70;;;0.80;;
69381;SDS011;56560;50.692;12.844;2022-10-16T00:26:28;1.85;;;0.80;;
69381;SDS011;56560;50.692;12.844;2022-10-16T00:28:55;3.67;;;0.90;;
69381;SDS011;56560;50.692;12.844;2022-10-16T00:31:21;4.20;;;0.90;;
69381;SDS011;56560;50.692;12.844;2022-10-16T00:33:48;5.22;;;1.00;;
69381;SDS011;56560;50.692;12.844;2022-10-16T00:36:15;1.65;;;0.80;;
69381;SDS011;56560;50.692;12.844;2022-10-16T00:38:43;2.28;;;0.90;;
69381;SDS011;56560;50.692;12.844;2022-10-16T00:41:11;1.70;;;0.73;;
69381;SDS011;56560;50.692;12.844;2022-10-16T00:46:29;0.90;;;0.70;;
69381;SDS011;56560;50.692;12.844;2022-10-16T00:48:59;3.60;;;0.98;;
69381;SDS011;56560;50.692;12.844;2022-10-16T00:51:33;6.90;;;1.20;;
69381;SDS011;56560;50.692;12.844;2022-10-16T00:54:04;1.30;;;0.80;;
69381;SDS011;56560;50.692;12.844;2022-10-16T00:56:35;1.70;;;0.70;;
69381;SDS011;56560;50.692;12.844;2022-10-16T00:59:01;1.80;;;0.70;;
69381;SDS011;56560;50.692;12.844;2022-10-16T01:01:30;1.80;;;0.60;;
69381;SDS011;56560;50.692;12.844;2022-10-16T01:03:55;1.83;;;0.70;;
69381;SDS011;56560;50.692;12.844;2022-10-16T01:06:22;1.80;;;0.70;;
69381;SDS011;56560;50.692;12.844;2022-10-16T01:11:49;1.92;;;0.80;;
69381;SDS011;56560;50.692;12.844;2022-10-16T01:14:37;1.15;;;0.80;;
69381;SDS011;56560;50.692;12.844;2022-10-16T01:17:19;3.40;;;0.80;;
69381;SDS011;56560;50.692;12.844;2022-10-16T01:20:26;4.20;;;0.85;;
69381;SDS011;56560;50.692;12.844;2022-10-16T01:28:39;1.23;;;0.80;;
69381;SDS011;56560;50.692;12.844;2022-10-16T01:31:12;1.30;;;0.90;;
69381;SDS011;56560;50.692;12.844;2022-10-16T01:33:42;1.80;;;0.90;;
69381;SDS011;56560;50.692;12.844;2022-10-16T01:36:15;1.90;;;1.00;;
69381;SDS011;56560;50.692;12.844;2022-10-16T01:38:46;2.03;;;1.00;;
69381;SDS011;56560;50.692;12.844;2022-10-16T01:41:15;3.05;;;1.00;;
69381;SDS011;56560;50.692;12.844;2022-10-16T01:43:51;3.40;;;1.10;;
69381;SDS011;56560;50.692;12.844;2022-10-16T01:46:22;2.45;;;1.00;;
69381;SDS011;56560;50.692;12.844;2022-10-16T01:48:49;2.83;;;1.10;;
69381;SDS011;56560;50.692;12.844;2022-10-16T01:51:17;2.42;;;1.20;;
69381;SDS011;56560;50.692;12.844;2022-10-16T01:53:46;3.97;;;1.27;;
69381;SDS011;56560;50.692;12.844;2022-10-16T01:56:15;3.10;;;1.10;;
69381;SDS011;56560;50.692;12.844;2022-10-16T01:58:47;2.22;;;1.10;;
69381;SDS011;56560;50.692;12.844;2022-10-16T02:01:16;2.65;;;1.20;;
69381;SDS011;56560;50.692;12.844;2022-10-16T02:03:45;3.63;;;1.40;;
69381;SDS011;56560;50.692;12.844;2022-10-16T02:06:15;2.35;;;1.30;;
69381;SDS011;56560;50.692;12.844;2022-10-16T02:08:40;3.87;;;1.30;;
69381;SDS011;56560;50.692;12.844;2022-10-16T02:11:09;2.53;;;1.30;;
69381;SDS011;56560;50.692;12.844;2022-10-16T02:16:10;3.20;;;1.50;;
69381;SDS011;56560;50.692;12.844;2022-10-16T02:18:37;2.30;;;1.10;;
69381;SDS011;56560;50.692;12.844;2022-10-16T02:26:29;3.08;;;1.40;;
69381;SDS011;56560;50.692;12.844;2022-10-16T02:29:02;3.00;;;1.30;;
69381;SDS011;56560;50.692;12.844;2022-10-16T02:31:33;3.22;;;1.30;;
69381;SDS011;56560;50.692;12.844;2022-10-16T02:34:02;4.47;;;1.27;;
69381;SDS011;56560;50.692;12.844;2022-10-16T02:36:30;3.33;;;1.70;;
69381;SDS011;56560;50.692;12.844;2022-10-16T02:38:57;2.10;;;1.25;;
69381;SDS011;56560;50.692;12.844;2022-10-16T02:41:25;2.37;;;1.30;;
69381;SDS011;56560;50.692;12.844;2022-10-16T02:43:51;2.53;;;1.30;;
69381;SDS011;56560;50.692;12.844;2022-10-16T02:46:16;2.55;;;1.58;;
69381;SDS011;56560;50.692;12.844;2022-10-16T02:48:43;2.60;;;1.30;;
69381;SDS011;56560;50.692;12.844;2022-10-16T02:51:09;3.22;;;1.30;;
69381;SDS011;56560;50.692;12.844;2022-10-16T02:53:34;3.37;;;1.50;;
69381;SDS011;56560;50.692;12.844;2022-10-16T02:56:00;2.97;;;1.40;;
69381;SDS011;56560;50.692;12.844;2022-10-16T02:58:26;3.47;;;1.33;;
69381;SDS011;56560;50.692;12.844;2022-10-16T03:00:52;2.58;;;1.30;;
69381;SDS011;56560;50.692;12.844;2022-10-16T03:03:18;2.20;;;1.43;;
69381;SDS011;56560;50.692;12.844;2022-10-16T03:05:43;2.85;;;1.50;;
69381;SDS011;56560;50.692;12.844;2022-10-16T03:08:11;2.88;;;1.20;;
69381;SDS011;56560;50.692;12.844;2022-10-16T03:10:37;2.85;;;1.40;;
69381;SDS011;56560;50.692;12.844;2022-10-16T03:13:02;2.67;;;0.95;;
69381;SDS011;56560;50.692;12.844;2022-10-16T03:15:28;3.78;;;1.30;;
69381;SDS011;56560;50.692;12.844;2022-10-16T03:17:54;4.13;;;1.35;;
69381;SDS011;56560;50.692;12.844;2022-10-16T03:20:22;3.30;;;1.40;;
69381;SDS011;56560;50.692;12.844;2022-10-16T03:22:47;2.60;;;1.30;;
69381;SDS011;56560;50.692;12.844;2022-10-16T03:25:13;2.60;;;1.20;;
69381;SDS011;56560;50.692;12.844;2022-10-16T03:27:39;1.63;;;1.10;;
69381;SDS011;56560;50.692;12.844;2022-10-16T03:30:04;3.90;;;1.40;;
69381;SDS011;56560;50.692;12.844;2022-10-16T03:32:30;2.03;;;1.23;;
69381;SDS011;56560;50.692;12.844;2022-10-16T03:34:56;3.80;;;1.30;;
69381;SDS011;56560;50.692;12.844;2022-10-16T03:37:22;2.80;;;1.20;;
69381;SDS011;56560;50.692;12.844;2022-10-16T03:39:48;1.63;;;1.10;;
69381;SDS011;56560;50.692;12.844;2022-10-16T03:42:13;2.10;;;1.00;;
69381;SDS011;56560;50.692;12.844;2022-10-16T03:44:39;2.20;;;1.10;;
69381;SDS011;56560;50.692;12.844;2022-10-16T03:47:04;1.30;;;0.90;;
69381;SDS011;56560;50.692;12.844;2022-10-16T03:49:30;2.37;;;0.90;;
69381;SDS011;56560;50.692;12.844;2022-10-16T03:51:55;3.40;;;1.08;;
69381;SDS011;56560;50.692;12.844;2022-10-16T03:54:21;6.23;;;1.10;;
69381;SDS011;56560;50.692;12.844;2022-10-16T03:56:47;1.13;;;0.88;;
69381;SDS011;56560;50.692;12.844;2022-10-16T03:59:13;2.47;;;1.10;;
69381;SDS011;56560;50.692;12.844;2022-10-16T04:01:38;1.20;;;0.80;;
69381;SDS011;56560;50.692;12.844;2022-10-16T04:04:04;2.57;;;1.00;;
69381;SDS011;56560;50.692;12.844;2022-10-16T04:06:30;1.77;;;0.90;;
69381;SDS011;56560;50.692;12.844;2022-10-16T04:08:55;2.27;;;1.00;;
69381;SDS011;56560;50.692;12.844;2022-10-16T04:11:21;2.88;;;1.10;;
69381;SDS011;56560;50.692;12.844;2022-10-16T04:13:47;2.23;;;1.33;;
69381;SDS011;56560;50.692;12.844;2022-10-16T04:16:12;2.33;;;0.98;;
69381;SDS011;56560;50.692;12.844;2022-10-16T04:18:38;3.07;;;1.20;;
69381;SDS011;56560;50.692;12.844;2022-10-16T04:21:04;3.35;;;1.20;;
69381;SDS011;56560;50.692;12.844;2022-10-16T04:23:31;2.60;;;1.20;;
69381;SDS011;56560;50.692;12.844;2022-10-16T04:25:57;2.63;;;1.20;;
69381;SDS011;56560;50.692;12.844;2022-10-16T04:28:22;3.88;;;1.20;;
69381;SDS011;56560;50.692;12.844;2022-10-16T04:30:48;2.47;;;1.33;;
69381;SDS011;56560;50.692;12.844;2022-10-16T04:33:14;2.75;;;1.10;;
69381;SDS011;56560;50.692;12.844;2022-10-16T04:35:39;2.53;;;1.30;;
69381;SDS011;56560;50.692;12.844;2022-10-16T04:38:05;4.00;;;1.40;;
69381;SDS011;56560;50.692;12.844;2022-10-16T04:40:31;1.52;;;0.95;;
69381;SDS011;56560;50.692;12.844;2022-10-16T04:42:58;4.53;;;1.30;;
69381;SDS011;56560;50.692;12.844;2022-10-16T04:45:24;2.30;;;1.20;;
69381;SDS011;56560;50.692;12.844;2022-10-16T04:47:49;5.60;;;1.45;;
69381;SDS011;56560;50.692;12.844;2022-10-16T04:50:15;3.73;;;1.40;;
69381;SDS011;56560;50.692;12.844;2022-10-16T04:52:41;4.10;;;1.40;;
69381;SDS011;56560;50.692;12.844;2022-10-16T04:55:06;3.20;;;1.30;;
69381;SDS011;56560;50.692;12.844;2022-10-16T04:57:32;2.58;;;1.30;;
69381;SDS011;56560;50.692;12.844;2022-10-16T04:59:58;2.67;;;1.30;;
69381;SDS011;56560;50.692;12.844;2022-10-16T05:02:24;4.10;;;1.20;;
69381;SDS011;56560;50.692;12.844;2022-10-16T05:04:50;3.08;;;1.23;;
69381;SDS011;56560;50.692;12.844;2022-10-16T05:07:16;2.20;;;1.00;;
69381;SDS011;56560;50.692;12.844;2022-10-16T05:09:41;3.07;;;1.07;;
69381;SDS011;56560;50.692;12.844;2022-10-16T05:12:07;2.20;;;1.10;;
69381;SDS011;56560;50.692;12.844;2022-10-16T05:14:33;1.65;;;0.93;;
69381;SDS011;56560;50.692;12.844;2022-10-16T05:16:59;2.83;;;1.17;;
69381;SDS011;56560;50.692;12.844;2022-10-16T05:19:25;3.05;;;1.00;;
69381;SDS011;56560;50.692;12.844;2022-10-16T05:21:51;2.40;;;1.00;;
69381;SDS011;56560;50.692;12.844;2022-10-16T05:24:16;2.17;;;1.00;;
69381;SDS011;56560;50.692;12.844;2022-10-16T05:26:42;3.77;;;1.10;;
69381;SDS011;56560;50.692;12.844;2022-10-16T05:29:08;2.00;;;1.00;;
69381;SDS011;56560;50.692;12.844;2022-10-16T05:31:34;2.60;;;1.13;;
69381;SDS011;56560;50.692;12.844;2022-10-16T05:34:00;1.27;;;0.90;;
69381;SDS011;56560;50.692;12.844;2022-10-16T05:36:26;1.48;;;0.90;;
69381;SDS011;56560;50.692;12.844;2022-10-16T05:38:52;4.57;;;1.10;;
69381;SDS011;56560;50.692;12.844;2022-10-16T05:41:18;1.80;;;1.00;;
69381;SDS011;56560;50.692;12.844;2022-10-16T05:43:46;1.55;;;1.00;;
69381;SDS011;56560;50.692;12.844;2022-10-16T05:46:12;1.65;;;0.90;;
69381;SDS011;56560;50.692;12.844;2022-10-16T05:48:38;2.65;;;1.30;;
69381;SDS011;56560;50.692;12.844;2022-10-16T05:51:08;2.27;;;1.30;;
69381;SDS011;56560;50.692;12.844;2022-10-16T05:53:36;2.97;;;1.25;;
69381;SDS011;56560;50.692;12.844;2022-10-16T05:56:03;2.97;;;1.10;;
69381;SDS011;56560;50.692;12.844;2022-10-16T05:58:33;3.00;;;1.20;;
69381;SDS011;56560;50.692;12.844;2022-10-16T06:01:04;3.97;;;1.40;;
69381;SDS011;56560;50.692;12.844;2022-10-16T06:03:38;3.00;;;1.38;;
69381;SDS011;56560;50.692;12.844;2022-10-16T06:06:11;4.70;;;1.40;;
69381;SDS011;56560;50.692;12.844;2022-10-16T06:08:40;2.90;;;1.30;;
69381;SDS011;56560;50.692;12.844;2022-10-16T06:11:13;4.07;;;1.70;;
69381;SDS011;56560;50.692;12.844;2022-10-16T06:13:41;7.13;;;2.33;;
69381;SDS011;56560;50.692;12.844;2022-10-16T06:16:07;10.75;;;4.05;;
69381;SDS011;56560;50.692;12.844;2022-10-16T06:18:34;18.85;;;8.50;;
69381;SDS011;56560;50.692;12.844;2022-10-16T06:21:04;6.85;;;2.33;;
69381;SDS011;56560;50.692;12.844;2022-10-16T06:23:36;5.10;;;2.17;;
69381;SDS011;56560;50.692;12.844;2022-10-16T06:26:15;5.95;;;2.47;;
69381;SDS011;56560;50.692;12.844;2022-10-16T06:28:42;7.03;;;2.40;;
69381;SDS011;56560;50.692;12.844;2022-10-16T06:31:09;6.63;;;2.70;;
69381;SDS011;56560;50.692;12.844;2022-10-16T06:33:35;7.85;;;2.53;;
69381;SDS011;56560;50.692;12.844;2022-10-16T06:38:33;3.30;;;1.75;;
69381;SDS011;56560;50.692;12.844;2022-10-16T06:40:59;4.13;;;1.70;;
69381;SDS011;56560;50.692;12.844;2022-10-16T06:43:25;3.83;;;1.70;;
69381;SDS011;56560;50.692;12.844;2022-10-16T06:45:54;4.20;;;1.67;;
69381;SDS011;56560;50.692;12.844;2022-10-16T06:48:21;6.60;;;2.05;;
69381;SDS011;56560;50.692;12.844;2022-10-16T06:53:29;3.78;;;1.60;;
69381;SDS011;56560;50.692;12.844;2022-10-16T06:55:56;3.75;;;1.52;;
69381;SDS011;56560;50.692;12.844;2022-10-16T06:58:22;3.47;;;1.48;;
69381;SDS011;56560;50.692;12.844;2022-10-16T07:00:48;3.88;;;1.90;;
69381;SDS011;56560;50.692;12.844;2022-10-16T07:03:19;4.25;;;1.80;;
69381;SDS011;56560;50.692;12.844;2022-10-16T07:05:45;4.45;;;1.95;;
69381;SDS011;56560;50.692;12.844;2022-10-16T07:08:11;3.63;;;1.73;;
69381;SDS011;56560;50.692;12.844;2022-10-16T07:10:36;4.00;;;1.87;;
69381;SDS011;56560;50.692;12.844;2022-10-16T07:13:02;3.55;;;1.70;;
69381;SDS011;56560;50.692;12.844;2022-10-16T07:15:28;4.03;;;1.87;;
69381;SDS011;56560;50.692;12.844;2022-10-16T07:17:54;4.22;;;1.70;;
69381;SDS011;56560;50.692;12.844;2022-10-16T07:20:19;4.27;;;1.93;;
69381;SDS011;56560;50.692;12.844;2022-10-16T07:22:45;3.22;;;1.70;;
69381;SDS011;56560;50.692;12.844;2022-10-16T07:25:11;4.28;;;1.70;;
69381;SDS011;56560;50.692;12.844;2022-10-16T07:27:37;4.70;;;1.90;;
69381;SDS011;56560;50.692;12.844;2022-10-16T07:30:03;4.72;;;1.60;;
69381;SDS011;56560;50.692;12.844;2022-10-16T07:32:30;4.18;;;1.70;;
69381;SDS011;56560;50.692;12.844;2022-10-16T07:34:56;4.53;;;1.90;;
69381;SDS011;56560;50.692;12.844;2022-10-16T07:37:22;5.60;;;1.93;;
69381;SDS011;56560;50.692;12.844;2022-10-16T07:39:48;8.40;;;2.58;;
69381;SDS011;56560;50.692;12.844;2022-10-16T07:42:14;6.33;;;2.17;;
69381;SDS011;56560;50.692;12.844;2022-10-16T07:44:39;7.15;;;2.40;;
69381;SDS011;56560;50.692;12.844;2022-10-16T07:47:05;6.15;;;2.10;;
69381;SDS011;56560;50.692;12.844;2022-10-16T07:49:31;5.60;;;1.85;;
69381;SDS011;56560;50.692;12.844;2022-10-16T07:51:57;4.75;;;2.05;;
69381;SDS011;56560;50.692;12.844;2022-10-16T07:54:22;2.93;;;1.47;;
69381;SDS011;56560;50.692;12.844;2022-10-16T07:56:48;4.23;;;1.70;;
69381;SDS011;56560;50.692;12.844;2022-10-16T07:59:14;5.72;;;1.80;;
69381;SDS011;56560;50.692;12.844;2022-10-16T08:01:39;5.83;;;2.20;;
69381;SDS011;56560;50.692;12.844;2022-10-16T08:04:07;4.95;;;1.95;;
69381;SDS011;56560;50.692;12.844;2022-10-16T08:06:38;4.60;;;2.00;;
69381;SDS011;56560;50.692;12.844;2022-10-16T08:09:06;3.72;;;1.50;;
69381;SDS011;56560;50.692;12.844;2022-10-16T08:11:35;4.30;;;1.90;;
69381;SDS011;56560;50.692;12.844;2022-10-16T08:14:01;3.25;;;1.50;;
69381;SDS011;56560;50.692;12.844;2022-10-16T08:16:27;4.97;;;1.70;;
69381;SDS011;56560;50.692;12.844;2022-10-16T08:18:52;5.97;;;2.33;;
69381;SDS011;56560;50.692;12.844;2022-10-16T08:21:19;5.15;;;2.10;;
69381;SDS011;56560;50.692;12.844;2022-10-16T08:23:47;4.87;;;2.20;;
69381;SDS011;56560;50.692;12.844;2022-10-16T08:26:14;5.05;;;1.83;;
69381;SDS011;56560;50.692;12.844;2022-10-16T08:28:40;4.10;;;1.80;;
69381;SDS011;56560;50.692;12.844;2022-10-16T08:31:15;4.13;;;1.63;;
69381;SDS011;56560;50.692;12.844;2022-10-16T08:33:41;7.28;;;1.70;;
69381;SDS011;56560;50.692;12.844;2022-10-16T08:36:09;3.28;;;1.50;;
69381;SDS011;56560;50.692;12.844;2022-10-16T08:38:36;5.27;;;1.93;;
69381;SDS011;56560;50.692;12.844;2022-10-16T08:41:08;3.67;;;1.80;;
69381;SDS011;56560;50.692;12.844;2022-10-16T08:49:22;14.48;;;6.05;;
69381;SDS011;56560;50.692;12.844;2022-10-16T08:51:49;8.95;;;4.00;;
69381;SDS011;56560;50.692;12.844;2022-10-16T08:54:32;3.85;;;1.75;;
69381;SDS011;56560;50.692;12.844;2022-10-16T08:57:24;4.13;;;1.58;;
69381;SDS011;56560;50.692;12.844;2022-10-16T08:59:52;4.22;;;1.80;;
69381;SDS011;56560;50.692;12.844;2022-10-16T09:02:32;6.13;;;2.30;;
69381;SDS011;56560;50.692;12.844;2022-10-16T09:16:33;11.30;;;4.47;;
69381;SDS011;56560;50.692;12.844;2022-10-16T09:19:05;11.20;;;4.07;;
69381;SDS011;56560;50.692;12.844;2022-10-16T09:21:44;17.25;;;6.85;;
69381;SDS011;56560;50.692;12.844;2022-10-16T09:24:17;20.55;;;7.95;;
69381;SDS011;56560;50.692;12.844;2022-10-16T09:26:46;24.08;;;10.90;;
69381;SDS011;56560;50.692;12.844;2022-10-16T09:29:13;37.83;;;16.47;;
69381;SDS011;56560;50.692;12.844;2022-10-16T09:31:40;30.33;;;15.00;;
69381;SDS011;56560;50.692;12.844;2022-10-16T09:34:11;14.10;;;5.60;;
69381;SDS011;56560;50.692;12.844;2022-10-16T09:36:55;6.50;;;2.50;;
69381;SDS011;56560;50.692;12.844;2022-10-16T09:39:22;22.58;;;9.48;;
69381;SDS011;56560;50.692;12.844;2022-10-16T09:41:48;16.58;;;5.47;;
69381;SDS011;56560;50.692;12.844;2022-10-16T09:44:25;25.30;;;10.85;;
69381;SDS011;56560;50.692;12.844;2022-10-16T09:47:05;21.15;;;9.18;;
69381;SDS011;56560;50.692;12.844;2022-10-16T09:49:49;18.67;;;8.23;;
69381;SDS011;56560;50.692;12.844;2022-10-16T09:52:16;26.40;;;11.95;;
69381;SDS011;56560;50.692;12.844;2022-10-16T09:57:20;21.20;;;9.05;;
69381;SDS011;56560;50.692;12.844;2022-10-16T09:59:51;10.80;;;4.20;;
69381;SDS011;56560;50.692;12.844;2022-10-16T10:02:31;9.67;;;3.60;;
69381;SDS011;56560;50.692;12.844;2022-10-16T10:05:00;12.25;;;4.75;;
69381;SDS011;56560;50.692;12.844;2022-10-16T10:07:27;13.73;;;6.05;;
69381;SDS011;56560;50.692;12.844;2022-10-16T10:09:59;12.43;;;5.60;;
69381;SDS011;56560;50.692;12.844;2022-10-16T10:12:30;5.15;;;1.85;;
69381;SDS011;56560;50.692;12.844;2022-10-16T10:15:04;7.72;;;2.60;;
69381;SDS011;56560;50.692;12.844;2022-10-16T10:17:46;8.70;;;4.18;;
69381;SDS011;56560;50.692;12.844;2022-10-16T10:20:30;5.60;;;2.42;;
69381;SDS011;56560;50.692;12.844;2022-10-16T10:22:59;8.23;;;2.80;;
69381;SDS011;56560;50.692;12.844;2022-10-16T10:31:33;7.30;;;2.40;;
69381;SDS011;56560;50.692;12.844;2022-10-16T10:37:08;16.00;;;7.32;;
69381;SDS011;56560;50.692;12.844;2022-10-16T10:40:09;7.72;;;2.95;;
69381;SDS011;56560;50.692;12.844;2022-10-16T10:42:59;9.07;;;3.83;;
69381;SDS011;56560;50.692;12.844;2022-10-16T10:45:38;10.00;;;4.57;;
69381;SDS011;56560;50.692;12.844;2022-10-16T10:51:04;18.40;;;8.65;;
69381;SDS011;56560;50.692;12.844;2022-10-16T10:53:55;7.72;;;2.58;;
69381;SDS011;56560;50.692;12.844;2022-10-16T11:10:38;5.53;;;2.10;;
69381;SDS011;56560;50.692;12.844;2022-10-16T11:13:15;5.50;;;2.50;;
69381;SDS011;56560;50.692;12.844;2022-10-16T11:16:02;3.33;;;1.50;;
69381;SDS011;56560;50.692;12.844;2022-10-16T11:21:17;3.88;;;1.50;;
69381;SDS011;56560;50.692;12.844;2022-10-16T11:23:53;2.73;;;1.60;;
69381;SDS011;56560;50.692;12.844;2022-10-16T11:26:28;4.10;;;1.35;;
69381;SDS011;56560;50.692;12.844;2022-10-16T11:28:59;3.38;;;1.52;;
69381;SDS011;56560;50.692;12.844;2022-10-16T11:31:47;3.70;;;1.50;;
69381;SDS011;56560;50.692;12.844;2022-10-16T11:34:22;3.22;;;1.38;;
69381;SDS011;56560;50.692;12.844;2022-10-16T11:39:40;4.10;;;1.58;;
69381;SDS011;56560;50.692;12.844;2022-10-16T11:47:34;3.28;;;1.65;;
69381;SDS011;56560;50.692;12.844;2022-10-16T11:50:11;8.88;;;2.25;;
69381;SDS011;56560;50.692;12.844;2022-10-16T11:52:56;3.70;;;1.60;;
69381;SDS011;56560;50.692;12.844;2022-10-16T11:55:40;9.13;;;3.60;;
69381;SDS011;56560;50.692;12.844;2022-10-16T12:09:00;5.00;;;2.00;;
69381;SDS011;56560;50.692;12.844;2022-10-16T12:19:20;5.15;;;1.90;;
69381;SDS011;56560;50.692;12.844;2022-10-16T12:21:47;9.95;;;3.78;;
69381;SDS011;56560;50.692;12.844;2022-10-16T12:24:21;5.03;;;2.00;;
69381;SDS011;56560;50.692;12.844;2022-10-16T12:26:58;6.53;;;2.40;;
69381;SDS011;56560;50.692;12.844;2022-10-16T12:35:00;8.32;;;3.42;;
69381;SDS011;56560;50.692;12.844;2022-10-16T12:39:55;4.95;;;1.80;;
69381;SDS011;56560;50.692;12.844;2022-10-16T12:44:54;4.88;;;1.90;;
69381;SDS011;56560;50.692;12.844;2022-10-16T12:50:00;4.90;;;2.13;;
69381;SDS011;56560;50.692;12.844;2022-10-16T12:52:28;3.77;;;1.60;;
69381;SDS011;56560;50.692;12.844;2022-10-16T12:55:00;3.70;;;1.60;;
69381;SDS011;56560;50.692;12.844;2022-10-16T13:00:28;3.42;;;1.98;;
69381;SDS011;56560;50.692;12.844;2022-10-16T13:05:54;3.63;;;1.70;;
69381;SDS011;56560;50.692;12.844;2022-10-16T13:17:17;2.95;;;1.50;;
69381;SDS011;56560;50.692;12.844;2022-10-16T13:20:48;4.55;;;1.58;;
69381;SDS011;56560;50.692;12.844;2022-10-16T13:22:51;4.15;;;1.70;;
69381;SDS011;56560;50.692;12.844;2022-10-16T13:28:35;4.93;;;1.50;;
69381;SDS011;56560;50.692;12.844;2022-10-16T13:31:03;11.98;;;4.47;;
69381;SDS011;56560;50.692;12.844;2022-10-16T13:33:42;5.22;;;2.33;;
69381;SDS011;56560;50.692;12.844;2022-10-16T13:36:20;11.82;;;6.18;;
69381;SDS011;56560;50.692;12.844;2022-10-16T13:39:19;9.97;;;4.53;;
69381;SDS011;56560;50.692;12.844;2022-10-16T13:42:06;8.82;;;2.95;;
69381;SDS011;56560;50.692;12.844;2022-10-16T13:44:40;12.15;;;3.92;;
69381;SDS011;56560;50.692;12.844;2022-10-16T13:47:19;10.15;;;4.40;;
69381;SDS011;56560;50.692;12.844;2022-10-16T13:49:58;9.38;;;4.28;;
69381;SDS011;56560;50.692;12.844;2022-10-16T13:52:38;11.23;;;4.60;;
69381;SDS011;56560;50.692;12.844;2022-10-16T13:55:09;9.07;;;3.92;;
69381;SDS011;56560;50.692;12.844;2022-10-16T13:57:37;7.05;;;2.20;;
69381;SDS011;56560;50.692;12.844;2022-10-16T14:00:03;9.18;;;4.03;;
69381;SDS011;56560;50.692;12.844;2022-10-16T14:02:41;6.50;;;2.60;;
69381;SDS011;56560;50.692;12.844;2022-10-16T14:05:08;11.35;;;4.60;;
69381;SDS011;56560;50.692;12.844;2022-10-16T14:07:35;13.75;;;6.45;;
69381;SDS011;56560;50.692;12.844;2022-10-16T14:10:06;11.98;;;5.00;;
69381;SDS011;56560;50.692;12.844;2022-10-16T14:12:44;13.57;;;4.00;;
69381;SDS011;56560;50.692;12.844;2022-10-16T14:15:16;14.77;;;5.90;;
69381;SDS011;56560;50.692;12.844;2022-10-16T14:17:43;8.85;;;3.28;;
69381;SDS011;56560;50.692;12.844;2022-10-16T14:20:14;8.00;;;3.13;;
69381;SDS011;56560;50.692;12.844;2022-10-16T14:22:41;7.57;;;2.70;;
69381;SDS011;56560;50.692;12.844;2022-10-16T14:28:13;11.52;;;5.13;;
69381;SDS011;56560;50.692;12.844;2022-10-16T14:33:22;7.68;;;3.13;;
69381;SDS011;56560;50.692;12.844;2022-10-16T14:38:34;6.55;;;3.05;;
69381;SDS011;56560;50.692;12.844;2022-10-16T14:41:00;9.27;;;5.05;;
69381;SDS011;56560;50.692;12.844;2022-10-16T14:46:03;7.07;;;2.95;;
69381;SDS011;56560;50.692;12.844;2022-10-16T14:49:21;5.73;;;2.60;;
69381;SDS011;56560;50.692;12.844;2022-10-16T14:51:29;10.85;;;5.35;;
69381;SDS011;56560;50.692;12.844;2022-10-16T14:53:55;9.82;;;4.43;;
69381;SDS011;56560;50.692;12.844;2022-10-16T14:56:22;7.00;;;2.83;;
69381;SDS011;56560;50.692;12.844;2022-10-16T14:58:50;9.07;;;3.88;;
69381;SDS011;56560;50.692;12.844;2022-10-16T15:01:17;6.97;;;3.05;;
69381;SDS011;56560;50.692;12.844;2022-10-16T15:03:43;12.23;;;4.03;;
69381;SDS011;56560;50.692;12.844;2022-10-16T15:06:13;10.37;;;4.07;;
69381;SDS011;56560;50.692;12.844;2022-10-16T15:08:40;10.05;;;4.07;;
69381;SDS011;56560;50.692;12.844;2022-10-16T15:11:10;14.15;;;7.28;;
69381;SDS011;56560;50.692;12.844;2022-10-16T15:13:38;14.60;;;4.95;;
69381;SDS011;56560;50.692;12.844;2022-10-16T15:16:04;11.87;;;4.77;;
69381;SDS011;56560;50.692;12.844;2022-10-16T15:18:33;6.88;;;2.40;;
69381;SDS011;56560;50.692;12.844;2022-10-16T15:20:59;19.73;;;8.70;;
69381;SDS011;56560;50.692;12.844;2022-10-16T15:23:24;16.27;;;6.30;;
69381;SDS011;56560;50.692;12.844;2022-10-16T15:25:50;18.33;;;7.83;;
69381;SDS011;56560;50.692;12.844;2022-10-16T15:28:18;16.48;;;8.88;;
69381;SDS011;56560;50.692;12.844;2022-10-16T15:30:45;16.20;;;7.82;;
69381;SDS011;56560;50.692;12.844;2022-10-16T15:33:13;15.63;;;6.60;;
69381;SDS011;56560;50.692;12.844;2022-10-16T15:35:40;14.60;;;6.88;;
69381;SDS011;56560;50.692;12.844;2022-10-16T15:38:06;15.02;;;7.57;;
69381;SDS011;56560;50.692;12.844;2022-10-16T15:40:37;12.57;;;5.70;;
69381;SDS011;56560;50.692;12.844;2022-10-16T15:43:03;10.77;;;5.00;;
69381;SDS011;56560;50.692;12.844;2022-10-16T15:45:29;12.10;;;5.40;;
69381;SDS011;56560;50.692;12.844;2022-10-16T15:47:54;23.37;;;11.40;;
69381;SDS011;56560;50.692;12.844;2022-10-16T15:50:20;22.17;;;10.00;;
69381;SDS011;56560;50.692;12.844;2022-10-16T15:52:46;16.10;;;8.47;;
69381;SDS011;56560;50.692;12.844;2022-10-16T15:55:12;13.35;;;7.03;;
69381;SDS011;56560;50.692;12.844;2022-10-16T15:57:39;16.63;;;9.80;;
69381;SDS011;56560;50.692;12.844;2022-10-16T16:00:07;12.55;;;6.97;;
69381;SDS011;56560;50.692;12.844;2022-10-16T16:02:34;12.00;;;5.78;;
69381;SDS011;56560;50.692;12.844;2022-10-16T16:05:00;14.60;;;4.57;;
69381;SDS011;56560;50.692;12.844;2022-10-16T16:07:26;14.20;;;5.70;;
69381;SDS011;56560;50.692;12.844;2022-10-16T16:09:52;11.50;;;3.42;;
69381;SDS011;56560;50.692;12.844;2022-10-16T16:12:18;13.80;;;3.03;;
69381;SDS011;56560;50.692;12.844;2022-10-16T16:14:44;12.97;;;3.70;;
69381;SDS011;56560;50.692;12.844;2022-10-16T16:17:11;13.35;;;3.10;;
69381;SDS011;56560;50.692;12.844;2022-10-16T16:19:36;11.60;;;4.37;;
69381;SDS011;56560;50.692;12.844;2022-10-16T16:22:02;10.27;;;4.40;;
69381;SDS011;56560;50.692;12.844;2022-10-16T16:24:28;18.17;;;7.50;;
69381;SDS011;56560;50.692;12.844;2022-10-16T16:26:53;51.17;;;22.10;;
69381;SDS011;56560;50.692;12.844;2022-10-16T16:29:19;32.17;;;15.83;;
69381;SDS011;56560;50.692;12.844;2022-10-16T16:31:45;25.13;;;11.85;;
69381;SDS011;56560;50.692;12.844;2022-10-16T16:34:12;21.17;;;11.00;;
69381;SDS011;56560;50.692;12.844;2022-10-16T16:36:38;19.02;;;7.53;;
69381;SDS011;56560;50.692;12.844;2022-10-16T16:39:05;19.77;;;6.65;;
69381;SDS011;56560;50.692;12.844;2022-10-16T16:41:31;17.13;;;6.60;;
69381;SDS011;56560;50.692;12.844;2022-10-16T16:44:02;15.00;;;6.90;;
69381;SDS011;56560;50.692;12.844;2022-10-16T16:46:30;18.13;;;9.32;;
69381;SDS011;56560;50.692;12.844;2022-10-16T16:48:57;18.05;;;8.85;;
69381;SDS011;56560;50.692;12.844;2022-10-16T16:51:24;34.15;;;17.73;;
69381;SDS011;56560;50.692;12.844;2022-10-16T16:53:50;28.35;;;13.85;;
69381;SDS011;56560;50.692;12.844;2022-10-16T16:56:17;25.30;;;11.65;;
69381;SDS011;56560;50.692;12.844;2022-10-16T16:58:47;28.20;;;13.05;;
69381;SDS011;56560;50.692;12.844;2022-10-16T17:01:13;30.77;;;14.25;;
69381;SDS011;56560;50.692;12.844;2022-10-16T17:03:41;24.95;;;10.40;;
69381;SDS011;56560;50.692;12.844;2022-10-16T17:06:11;22.77;;;9.30;;
69381;SDS011;56560;50.692;12.844;2022-10-16T17:08:39;19.90;;;8.68;;